Cheikh El Mokrani — C6WD5 — position and weather

sailwx.info

Track history (hours):
 
Tides and Currents Weather Stations Pressure Air Temp Water Temp Dewpoint Dewpoint Depression Visibility Wind Speed Wind Dir Waves Ship Positions

Cheikh El Mokrani

Last reported at 2015-Mar-30 17:33 UTC. Time now 2015-Mar-31 12:40 UTC.
Position N 42°16' E 005°20'.

Length 220 m; draft 8.1 m.

Type: Ship (hazmat cat D). MMSI: 309979000.

Date/timePositionNaut miles runAvg speedWind from/ knotsBaromVisibWave heightAir tempDewpointWater temp
2015-Mar-30 17:33N 42°16' E 005°20'2115.6
2015-Mar-30 16:13N 42°37' E 005°13'1114.8
2015-Mar-30 15:27N 42°48' E 005°09'1415.5
2015-Mar-30 14:33N 43°01' E 005°05'1615.7
2015-Mar-30 13:33N 43°16' E 004°60'10 9.6
2015-Mar-30 12:33N 43°25' E 004°54'0 0.1
2015-Mar-30 11:29N 43°25' E 004°54'0 0.0
2015-Mar-30 10:32N 43°25' E 004°54'0 0.0
2015-Mar-30 09:32N 43°25' E 004°54'0 0.0
2015-Mar-30 08:29N 43°25' E 004°54'0 0.0
2015-Mar-30 07:32N 43°25' E 004°54'0 0.0
2015-Mar-30 06:32N 43°25' E 004°54'0 0.0
2015-Mar-30 05:32N 43°25' E 004°54'0 0.0
2015-Mar-30 04:32N 43°25' E 004°54'0 0.0
2015-Mar-30 03:32N 43°25' E 004°54'0 0.0
2015-Mar-30 02:32N 43°25' E 004°54'0 0.0
2015-Mar-30 01:32N 43°25' E 004°54'0 0.0
2015-Mar-30 00:32N 43°25' E 004°54'0 0.0
2015-Mar-29 23:32N 43°25' E 004°54'0 0.0
2015-Mar-29 22:32N 43°25' E 004°54'0 0.0
2015-Mar-29 21:32N 43°25' E 004°54'0 0.0
2015-Mar-29 20:32N 43°25' E 004°54'0 0.0
2015-Mar-29 19:32N 43°25' E 004°54'0 0.0
2015-Mar-29 18:32N 43°25' E 004°54'0 0.0
2015-Mar-29 17:32N 43°25' E 004°54'0 0.0
2015-Mar-29 16:32N 43°25' E 004°54'0 0.0
2015-Mar-29 15:32N 43°25' E 004°54'0 0.0
2015-Mar-29 14:32N 43°25' E 004°54'0 0.0
2015-Mar-29 13:32N 43°25' E 004°54'0 0.0
2015-Mar-29 12:32N 43°25' E 004°54'0 0.0
2015-Mar-29 11:32N 43°25' E 004°54'0 0.0
2015-Mar-29 10:32N 43°25' E 004°54'0 0.0
2015-Mar-29 09:32N 43°25' E 004°54'2 2.2
2015-Mar-29 08:33N 43°23' E 004°56'7 7.2
2015-Mar-29 07:33N 43°17' E 005°00'8 8.3
2015-Mar-29 06:33N 43°09' E 005°04'9 8.5
2015-Mar-29 05:33N 43°01' E 005°02'9112.9
2015-Mar-28 22:30N 41°49' E 003°47'1512.4
2015-Mar-28 21:15N 41°37' E 003°34'1213.0
2015-Mar-28 20:20N 41°27' E 003°24'1113.6
2015-Mar-28 19:33N 41°19' E 003°16'1414.5
2015-Mar-28 18:34N 41°07' E 003°04'1514.7
2015-Mar-28 17:33N 40°56' E 002°52'1414.4
2015-Mar-28 16:33N 40°44' E 002°40'1514.4
2015-Mar-28 15:32N 40°33' E 002°28'1414.5
2015-Mar-28 14:33N 40°21' E 002°17'1414.3
2015-Mar-28 13:33N 40°10' E 002°06'1514.5
2015-Mar-28 12:33N 39°59' E 001°54'1414.3
2015-Mar-28 11:33N 39°47' E 001°43'1414.0
2015-Mar-28 10:33N 39°36' E 001°31'1414.2
2015-Mar-28 09:33N 39°25' E 001°20'1514.5
2015-Mar-28 08:33N 39°13' E 001°09'1615.5
2015-Mar-28 07:30N 39°00' E 000°56'9415.7
2015-Mar-28 01:33N 37°30' E 000°23'3815.5
2015-Mar-27 23:07N 36°54' E 000°10'915.4
2015-Mar-27 22:33N 36°46' E 000°07'1515.4
2015-Mar-27 21:33N 36°31' E 000°02'1816.6
2015-Mar-27 20:30N 36°14' W 000°04'1515.8
2015-Mar-27 19:33N 35°59' W 000°07'1212.0
2015-Mar-27 18:33N 35°49' W 000°15'  
Track history (hours):
 
Tides and Currents Weather Stations Pressure Air Temp Water Temp Dewpoint Dewpoint Depression Visibility Wind Speed Wind Dir Waves Ship Positions

Cheikh El Mokrani

Last reported at 2015-Mar-30 17:33 UTC. Time now 2015-Mar-31 12:40 UTC.
Position N 42°16' E 005°20'.

Length 220 m; draft 8.1 m.

Type: Ship (hazmat cat D). MMSI: 309979000.

Date/timePositionNaut miles runAvg speedWind from/ knotsBaromVisibWave heightAir tempDewpointWater temp
2015-Mar-30 17:33N 42°16' E 005°20'2115.6
2015-Mar-30 16:13N 42°37' E 005°13'1114.8
2015-Mar-30 15:27N 42°48' E 005°09'1415.5
2015-Mar-30 14:33N 43°01' E 005°05'1615.7
2015-Mar-30 13:33N 43°16' E 004°60'10 9.6
2015-Mar-30 12:33N 43°25' E 004°54'0 0.1
2015-Mar-30 11:29N 43°25' E 004°54'0 0.0
2015-Mar-30 10:32N 43°25' E 004°54'0 0.0
2015-Mar-30 09:32N 43°25' E 004°54'0 0.0
2015-Mar-30 08:29N 43°25' E 004°54'0 0.0
2015-Mar-30 07:32N 43°25' E 004°54'0 0.0
2015-Mar-30 06:32N 43°25' E 004°54'0 0.0
2015-Mar-30 05:32N 43°25' E 004°54'0 0.0
2015-Mar-30 04:32N 43°25' E 004°54'0 0.0
2015-Mar-30 03:32N 43°25' E 004°54'0 0.0
2015-Mar-30 02:32N 43°25' E 004°54'0 0.0
2015-Mar-30 01:32N 43°25' E 004°54'0 0.0
2015-Mar-30 00:32N 43°25' E 004°54'0 0.0
2015-Mar-29 23:32N 43°25' E 004°54'0 0.0
2015-Mar-29 22:32N 43°25' E 004°54'0 0.0
2015-Mar-29 21:32N 43°25' E 004°54'0 0.0
2015-Mar-29 20:32N 43°25' E 004°54'0 0.0
2015-Mar-29 19:32N 43°25' E 004°54'0 0.0
2015-Mar-29 18:32N 43°25' E 004°54'0 0.0
2015-Mar-29 17:32N 43°25' E 004°54'0 0.0
2015-Mar-29 16:32N 43°25' E 004°54'0 0.0
2015-Mar-29 15:32N 43°25' E 004°54'0 0.0
2015-Mar-29 14:32N 43°25' E 004°54'0 0.0
2015-Mar-29 13:32N 43°25' E 004°54'0 0.0
2015-Mar-29 12:32N 43°25' E 004°54'0 0.0
2015-Mar-29 11:32N 43°25' E 004°54'0 0.0
2015-Mar-29 10:32N 43°25' E 004°54'0 0.0
2015-Mar-29 09:32N 43°25' E 004°54'2 2.2
2015-Mar-29 08:33N 43°23' E 004°56'7 7.2
2015-Mar-29 07:33N 43°17' E 005°00'8 8.3
2015-Mar-29 06:33N 43°09' E 005°04'9 8.5
2015-Mar-29 05:33N 43°01' E 005°02'9112.9
2015-Mar-28 22:30N 41°49' E 003°47'1512.4
2015-Mar-28 21:15N 41°37' E 003°34'1213.0
2015-Mar-28 20:20N 41°27' E 003°24'1113.6
2015-Mar-28 19:33N 41°19' E 003°16'1414.5
2015-Mar-28 18:34N 41°07' E 003°04'1514.7
2015-Mar-28 17:33N 40°56' E 002°52'1414.4
2015-Mar-28 16:33N 40°44' E 002°40'1514.4
2015-Mar-28 15:32N 40°33' E 002°28'1414.5
2015-Mar-28 14:33N 40°21' E 002°17'1414.3
2015-Mar-28 13:33N 40°10' E 002°06'1514.5
2015-Mar-28 12:33N 39°59' E 001°54'1414.3
2015-Mar-28 11:33N 39°47' E 001°43'1414.0
2015-Mar-28 10:33N 39°36' E 001°31'1414.2
2015-Mar-28 09:33N 39°25' E 001°20'1514.5
2015-Mar-28 08:33N 39°13' E 001°09'1615.5
2015-Mar-28 07:30N 39°00' E 000°56'9415.7
2015-Mar-28 01:33N 37°30' E 000°23'3815.5
2015-Mar-27 23:07N 36°54' E 000°10'915.4
2015-Mar-27 22:33N 36°46' E 000°07'1515.4
2015-Mar-27 21:33N 36°31' E 000°02'1816.6
2015-Mar-27 20:30N 36°14' W 000°04'1515.8
2015-Mar-27 19:33N 35°59' W 000°07'1212.0
2015-Mar-27 18:33N 35°49' W 000°15'  

Dump ship's entire track history